createdAt,value
2017-06-27T00:01:25.614Z,66.70
2017-06-27T00:03:53.910Z,65.80
2017-06-27T00:06:22.497Z,65.70
2017-06-27T00:08:50.798Z,66.10
2017-06-27T00:11:19.070Z,66.40
2017-06-27T00:13:47.671Z,66.10
2017-06-27T00:16:16.447Z,66.00
2017-06-27T00:18:45.235Z,65.20
2017-06-27T00:21:13.826Z,64.20
2017-06-27T00:23:42.122Z,65.20
2017-06-27T00:26:10.422Z,65.30
2017-06-27T00:28:38.949Z,65.10
2017-06-27T00:31:07.282Z,64.10
2017-06-27T00:33:35.653Z,64.70
2017-06-27T00:36:04.237Z,64.60
2017-06-27T00:38:33.155Z,64.50
2017-06-27T00:41:01.437Z,65.80
2017-06-27T00:43:30.011Z,65.10
2017-06-27T00:45:58.383Z,64.90
2017-06-27T00:48:26.668Z,64.90
2017-06-27T00:50:55.362Z,65.10
2017-06-27T00:53:23.665Z,65.30
2017-06-27T00:55:52.780Z,65.10
2017-06-27T00:58:21.412Z,66.20
2017-06-27T01:00:50.116Z,66.20
2017-06-27T01:03:18.383Z,66.60
2017-06-27T01:05:48.441Z,66.90
2017-06-27T01:08:16.707Z,66.70
2017-06-27T01:10:45.520Z,67.10
2017-06-27T01:13:14.184Z,67.30
2017-06-27T01:15:42.986Z,68.70
2017-06-27T01:18:11.266Z,69.00
2017-06-27T01:20:39.846Z,69.10
2017-06-27T01:23:08.127Z,69.10
2017-06-27T01:25:36.416Z,69.10
2017-06-27T01:28:05.015Z,69.40
2017-06-27T01:30:33.387Z,69.70
2017-06-27T01:33:01.667Z,69.80
2017-06-27T01:35:30.276Z,69.60
2017-06-27T01:37:58.645Z,70.30
2017-06-27T01:40:26.915Z,70.90
2017-06-27T01:42:55.510Z,70.90
2017-06-27T01:45:23.770Z,71.60
2017-06-27T01:47:52.062Z,71.40
2017-06-27T01:50:20.664Z,71.40
2017-06-27T01:52:48.947Z,71.70
2017-06-27T01:55:17.215Z,72.20
2017-06-27T01:57:45.768Z,72.10
2017-06-27T02:00:14.791Z,73.00
2017-06-27T02:02:43.054Z,72.90
2017-06-27T02:05:11.688Z,72.80
2017-06-27T02:07:39.983Z,72.90
2017-06-27T02:10:08.585Z,73.10
2017-06-27T02:12:38.385Z,73.80
2017-06-27T02:15:08.282Z,74.00
2017-06-27T02:17:36.975Z,73.90
2017-06-27T02:20:05.559Z,73.90
2017-06-27T02:22:33.843Z,74.30
2017-06-27T02:25:02.644Z,74.80
2017-06-27T02:27:31.729Z,74.50
2017-06-27T02:30:00.218Z,75.50
2017-06-27T02:32:28.810Z,75.60
2017-06-27T02:34:57.351Z,75.60
2017-06-27T02:37:26.496Z,76.80
2017-06-27T02:39:54.780Z,76.90
2017-06-27T02:42:23.353Z,76.90
2017-06-27T02:44:51.675Z,76.20
2017-06-27T02:47:20.044Z,76.70
2017-06-27T02:49:48.631Z,77.20
2017-06-27T02:52:17.511Z,77.10
2017-06-27T02:54:45.795Z,76.60
2017-06-27T02:57:14.396Z,76.80
2017-06-27T02:59:42.660Z,76.70
2017-06-27T03:02:10.954Z,76.80
2017-06-27T03:04:39.531Z,76.90
2017-06-27T03:07:07.811Z,77.10
2017-06-27T03:09:36.091Z,77.50
2017-06-27T03:12:04.709Z,78.00
2017-06-27T03:14:33.331Z,77.50
2017-06-27T03:17:02.357Z,77.10
2017-06-27T03:19:30.962Z,76.90
2017-06-27T03:21:59.233Z,76.90
2017-06-27T03:24:28.347Z,75.70
2017-06-27T03:26:56.952Z,75.90
2017-06-27T03:29:26.162Z,75.20
2017-06-27T03:31:54.961Z,75.10
2017-06-27T03:34:23.529Z,75.90
2017-06-27T03:36:51.789Z,75.90
2017-06-27T03:39:20.053Z,75.80
2017-06-27T03:41:49.696Z,74.80
2017-06-27T03:44:17.970Z,74.00
2017-06-27T03:46:46.355Z,74.20
2017-06-27T03:49:14.959Z,75.40
2017-06-27T03:51:43.350Z,73.40
2017-06-27T03:54:11.894Z,71.80
2017-06-27T03:56:40.528Z,71.50
2017-06-27T03:59:08.826Z,70.70
2017-06-27T04:01:37.501Z,70.30
2017-06-27T04:04:06.076Z,69.10
2017-06-27T04:06:35.085Z,68.60
2017-06-27T04:09:03.352Z,67.90
2017-06-27T04:11:31.951Z,67.70
2017-06-27T04:14:00.325Z,67.00
2017-06-27T04:16:29.099Z,67.30
2017-06-27T04:18:58.124Z,67.70
2017-06-27T04:21:26.992Z,67.50
2017-06-27T04:23:55.875Z,67.10
2017-06-27T04:26:24.508Z,67.00
2017-06-27T04:28:52.893Z,66.20
2017-06-27T04:31:21.585Z,65.70
2017-06-27T04:33:50.168Z,64.70
2017-06-27T04:36:18.427Z,64.60
2017-06-27T04:38:46.706Z,64.50
2017-06-27T04:41:15.349Z,64.10
2017-06-27T04:43:44.357Z,63.10
2017-06-27T04:46:14.121Z,63.30
2017-06-27T04:48:42.710Z,63.20
2017-06-27T04:51:11.003Z,63.30
2017-06-27T04:53:40.616Z,63.40
2017-06-27T04:56:09.156Z,62.80
2017-06-27T04:58:38.260Z,62.20
2017-06-27T05:01:06.576Z,62.80
2017-06-27T05:03:35.145Z,63.60
2017-06-27T05:06:03.441Z,64.10
2017-06-27T05:08:32.200Z,64.20
2017-06-27T05:11:01.535Z,63.90
2017-06-27T05:13:29.841Z,64.20
2017-06-27T05:15:58.335Z,64.10
2017-06-27T05:18:27.741Z,66.00
2017-06-27T05:20:56.439Z,65.20
2017-06-27T05:23:25.141Z,65.00
2017-06-27T05:25:54.525Z,64.90
2017-06-27T05:28:22.856Z,64.80
2017-06-27T05:30:51.186Z,65.00
2017-06-27T05:33:19.715Z,65.30
2017-06-27T05:35:48.266Z,65.90
2017-06-27T05:38:17.357Z,65.30
2017-06-27T05:40:46.069Z,64.20
2017-06-27T05:43:15.158Z,63.40
2017-06-27T05:45:44.432Z,63.50
2017-06-27T05:48:13.072Z,63.10
2017-06-27T05:50:42.125Z,61.70
2017-06-27T05:53:12.944Z,61.20
2017-06-27T05:55:41.534Z,61.10
2017-06-27T05:58:09.849Z,61.20
2017-06-27T06:00:38.138Z,60.70
2017-06-27T06:03:07.575Z,60.10
2017-06-27T06:05:36.631Z,58.10
2017-06-27T06:08:05.542Z,58.10
2017-06-27T06:10:34.206Z,57.20
2017-06-27T06:13:02.618Z,57.10
2017-06-27T06:15:30.897Z,57.00
2017-06-27T06:17:59.466Z,57.50
2017-06-27T06:20:27.767Z,57.80
2017-06-27T06:22:56.726Z,57.70
2017-06-27T06:25:25.742Z,57.00
2017-06-27T06:27:54.797Z,57.20
2017-06-27T06:30:23.087Z,56.20
2017-06-27T06:32:52.181Z,55.80
2017-06-27T06:35:20.787Z,55.30
2017-06-27T06:37:49.116Z,55.50
2017-06-27T06:40:18.330Z,55.40
2017-06-27T06:42:48.750Z,56.10
2017-06-27T06:45:17.319Z,56.10
2017-06-27T06:47:45.901Z,56.60
2017-06-27T06:50:14.273Z,55.50
2017-06-27T06:55:18.743Z,56.00
2017-06-27T06:57:47.951Z,55.20
2017-06-27T07:00:17.061Z,54.70
2017-06-27T07:02:46.446Z,52.60
2017-06-27T07:05:14.775Z,52.60
2017-06-27T07:07:44.428Z,55.00
2017-06-27T07:10:12.999Z,54.80
2017-06-27T07:12:41.640Z,54.00
2017-06-27T07:15:10.721Z,52.50
2017-06-27T07:17:39.321Z,52.50
2017-06-27T07:20:08.178Z,51.70
2017-06-27T07:22:39.688Z,50.90
2017-06-27T07:25:08.349Z,50.40
2017-06-27T07:27:37.598Z,50.10
2017-06-27T07:30:05.940Z,47.50
2017-06-27T07:32:34.713Z,47.40
2017-06-27T07:35:03.235Z,47.40
2017-06-27T07:37:31.504Z,46.90
2017-06-27T07:40:00.081Z,46.90
2017-06-27T07:42:28.879Z,46.80
2017-06-27T07:44:57.162Z,46.60
2017-06-27T07:47:26.230Z,46.70
2017-06-27T07:49:54.544Z,45.50
2017-06-27T07:52:22.853Z,46.40
2017-06-27T07:54:52.214Z,45.50
2017-06-27T07:57:20.825Z,45.50
2017-06-27T07:59:49.106Z,46.40
2017-06-27T08:02:18.271Z,45.90
2017-06-27T08:04:46.791Z,45.40
2017-06-27T08:07:15.418Z,45.80
2017-06-27T08:09:44.783Z,44.90
2017-06-27T08:12:13.061Z,44.90
2017-06-27T08:14:41.390Z,44.40
2017-06-27T08:17:10.015Z,43.40
2017-06-27T08:19:38.280Z,42.50
2017-06-27T08:22:06.596Z,41.90
2017-06-27T08:24:35.296Z,41.90
2017-06-27T08:27:03.592Z,40.90
2017-06-27T08:29:34.170Z,40.80
2017-06-27T08:32:03.078Z,40.80
2017-06-27T08:34:31.484Z,39.60
2017-06-27T08:36:59.832Z,40.00
2017-06-27T08:39:28.448Z,39.50
2017-06-27T08:41:56.739Z,39.40
2017-06-27T08:44:25.225Z,38.20
2017-06-27T08:46:54.034Z,38.30
2017-06-27T08:49:22.292Z,38.50
2017-06-27T08:51:50.794Z,38.60
2017-06-27T08:54:20.115Z,38.80
2017-06-27T08:56:49.263Z,40.60
2017-06-27T08:59:17.566Z,40.60
2017-06-27T09:01:47.140Z,41.90
2017-06-27T09:04:16.161Z,41.60
2017-06-27T09:06:45.271Z,41.20
2017-06-27T09:09:13.860Z,41.40
2017-06-27T09:11:42.156Z,39.60
2017-06-27T09:14:10.509Z,39.70
2017-06-27T09:16:39.088Z,38.80
2017-06-27T09:19:07.375Z,38.60
2017-06-27T09:21:35.681Z,38.30
2017-06-27T09:24:04.283Z,38.60
2017-06-27T09:26:33.396Z,37.80
2017-06-27T09:29:01.664Z,38.60
2017-06-27T09:31:31.036Z,38.80
2017-06-27T09:33:59.341Z,39.30
2017-06-27T09:36:27.614Z,39.60
2017-06-27T09:38:56.193Z,39.70
2017-06-27T09:41:24.489Z,39.30
2017-06-27T09:43:52.842Z,39.10
2017-06-27T09:46:21.412Z,39.90
2017-06-27T09:48:49.741Z,40.20
2017-06-27T09:51:18.061Z,39.00
2017-06-27T09:53:47.436Z,39.50
2017-06-27T09:56:15.700Z,39.50
2017-06-27T09:58:44.096Z,38.90
2017-06-27T10:01:12.686Z,38.10
2017-06-27T10:03:41.789Z,37.50
2017-06-27T10:06:10.072Z,36.20
2017-06-27T10:08:39.399Z,35.80
2017-06-27T10:11:08.487Z,35.60
2017-06-27T10:13:36.821Z,35.60
2017-06-27T10:16:05.437Z,34.50
2017-06-27T10:18:33.999Z,33.90
2017-06-27T10:21:02.292Z,33.00
2017-06-27T10:23:30.885Z,33.30
2017-06-27T10:25:59.271Z,35.40
2017-06-27T10:28:27.547Z,34.00
2017-06-27T10:30:56.557Z,34.20
2017-06-27T10:33:24.837Z,34.10
2017-06-27T10:35:53.208Z,33.00
2017-06-27T10:38:21.792Z,32.80
2017-06-27T10:40:50.102Z,33.10
2017-06-27T10:43:18.383Z,32.40
2017-06-27T10:45:47.769Z,32.90
2017-06-27T10:48:16.048Z,34.00
2017-06-27T10:50:45.179Z,33.80
2017-06-27T10:53:13.786Z,33.70
2017-06-27T10:55:43.507Z,34.60
2017-06-27T10:58:11.812Z,34.50
2017-06-27T11:00:40.761Z,33.80
2017-06-27T11:03:09.606Z,33.70
2017-06-27T11:05:38.442Z,32.00
2017-06-27T11:08:07.814Z,31.40
2017-06-27T11:10:37.659Z,29.80
2017-06-27T11:13:05.964Z,30.10
2017-06-27T11:15:34.617Z,38.30
2017-06-27T11:18:04.035Z,28.70
2017-06-27T11:20:32.333Z,29.00
2017-06-27T11:23:02.000Z,29.00
2017-06-27T11:25:30.877Z,29.20
2017-06-27T11:27:59.297Z,29.50
2017-06-27T11:30:27.893Z,29.20
2017-06-27T11:32:57.027Z,28.70
2017-06-27T11:35:25.492Z,29.60
2017-06-27T11:37:54.144Z,30.20
2017-06-27T11:40:22.444Z,28.80
2017-06-27T11:42:50.731Z,27.70
2017-06-27T11:45:19.412Z,27.40
2017-06-27T11:47:47.822Z,25.80
2017-06-27T11:50:16.196Z,25.20
2017-06-27T11:52:44.815Z,25.80
2017-06-27T11:55:13.101Z,25.30
2017-06-27T11:57:42.172Z,25.80
2017-06-27T12:00:23.380Z,25.70
2017-06-27T12:02:51.890Z,26.20
2017-06-27T12:05:32.575Z,26.00
2017-06-27T12:08:06.832Z,25.50
2017-06-27T12:10:35.503Z,24.70
2017-06-27T12:13:05.704Z,24.00
2017-06-27T12:15:34.419Z,24.40
2017-06-27T12:18:02.721Z,25.00
2017-06-27T12:20:31.005Z,25.60
2017-06-27T12:22:59.572Z,26.50
2017-06-27T12:25:28.662Z,27.70
2017-06-27T12:27:57.072Z,27.20
2017-06-27T12:30:26.286Z,27.40
2017-06-27T12:32:55.435Z,25.40
2017-06-27T12:35:23.723Z,25.30
2017-06-27T12:37:52.349Z,24.00
2017-06-27T12:40:20.675Z,23.50
2017-06-27T12:42:48.993Z,22.60
2017-06-27T12:45:17.722Z,22.90
2017-06-27T12:47:46.308Z,22.20
2017-06-27T12:50:15.386Z,22.80
2017-06-27T12:52:43.959Z,22.80
2017-06-27T12:55:12.272Z,21.90
2017-06-27T12:57:42.390Z,20.50
2017-06-27T13:00:12.083Z,19.70
2017-06-27T13:02:41.518Z,18.60
2017-06-27T13:05:10.577Z,17.70
2017-06-27T13:07:39.161Z,17.70
2017-06-27T13:10:07.473Z,17.40
2017-06-27T13:12:36.161Z,17.20
2017-06-27T13:15:04.814Z,17.00
2017-06-27T13:17:33.127Z,17.00
2017-06-27T13:20:02.241Z,15.70
2017-06-27T13:22:31.663Z,15.40
2017-06-27T13:25:00.924Z,15.40
2017-06-27T13:27:30.306Z,15.50
2017-06-27T13:29:58.951Z,15.90
2017-06-27T13:32:28.719Z,15.90
2017-06-27T13:34:57.056Z,15.90
2017-06-27T13:37:25.739Z,15.70
2017-06-27T13:39:54.122Z,15.20
2017-06-27T13:42:24.099Z,14.50
2017-06-27T13:44:53.506Z,14.50
2017-06-27T13:47:21.884Z,14.00
2017-06-27T13:49:50.192Z,14.00
2017-06-27T13:52:18.767Z,13.60
2017-06-27T13:54:47.061Z,14.10
2017-06-27T13:57:16.195Z,14.40
2017-06-27T13:59:44.849Z,14.40
2017-06-27T14:02:13.230Z,14.70
2017-06-27T14:04:43.151Z,15.60
2017-06-27T14:07:12.522Z,16.00
2017-06-27T14:09:40.840Z,16.40
2017-06-27T14:12:09.946Z,15.10
2017-06-27T14:14:39.356Z,15.30
2017-06-27T14:17:10.150Z,15.30
2017-06-27T14:19:38.459Z,15.30
2017-06-27T14:22:07.165Z,15.50
2017-06-27T14:24:35.536Z,14.90
2017-06-27T14:27:05.812Z,15.00
2017-06-27T14:29:34.597Z,15.40
2017-06-27T14:32:03.345Z,15.00
2017-06-27T14:34:31.665Z,15.40
2017-06-27T14:37:01.153Z,14.90
2017-06-27T14:39:29.444Z,14.70
2017-06-27T14:41:58.519Z,16.80
2017-06-27T14:44:27.231Z,16.30
2017-06-27T14:46:56.286Z,14.10
2017-06-27T14:49:24.598Z,14.00
2017-06-27T14:51:53.992Z,14.10
2017-06-27T14:54:22.322Z,20.70
2017-06-27T14:59:20.483Z,14.20
2017-06-27T15:01:48.779Z,14.60
2017-06-27T15:04:18.648Z,14.90
2017-06-27T15:06:48.044Z,14.90
2017-06-27T15:09:17.873Z,15.70
2017-06-27T15:11:46.194Z,16.10
2017-06-27T15:14:14.784Z,15.70
2017-06-27T15:16:43.917Z,15.60
2017-06-27T15:19:12.256Z,15.50
2017-06-27T15:21:40.981Z,15.40
2017-06-27T15:24:10.078Z,16.40
2017-06-27T15:26:39.130Z,16.40
2017-06-27T15:29:07.731Z,16.90
2017-06-27T15:31:36.564Z,15.90
2017-06-27T15:34:04.880Z,15.70
2017-06-27T15:36:33.606Z,15.60
2017-06-27T15:39:02.508Z,16.20
2017-06-27T15:41:30.795Z,17.70
2017-06-27T15:43:59.450Z,18.00
2017-06-27T15:46:28.883Z,19.20
2017-06-27T15:48:58.313Z,20.40
2017-06-27T15:51:26.874Z,20.80
2017-06-27T15:53:55.169Z,22.10
2017-06-27T15:56:24.247Z,23.20
2017-06-27T15:58:52.853Z,24.30
2017-06-27T16:01:21.813Z,25.70
2017-06-27T16:03:50.850Z,26.70
2017-06-27T16:06:19.797Z,27.10
2017-06-27T16:08:48.065Z,28.10
2017-06-27T16:11:18.500Z,28.20
2017-06-27T16:13:47.850Z,28.80
2017-06-27T16:16:16.137Z,28.80
2017-06-27T16:18:45.992Z,29.10
2017-06-27T16:21:14.671Z,28.90
2017-06-27T16:23:43.542Z,29.30
2017-06-27T16:26:12.303Z,29.40
2017-06-27T16:28:41.947Z,30.20
2017-06-27T16:31:10.338Z,29.20
2017-06-27T16:33:38.639Z,29.80
2017-06-27T16:36:08.313Z,30.30
2017-06-27T16:38:36.616Z,32.10
2017-06-27T16:41:05.513Z,31.20
2017-06-27T16:43:34.195Z,31.40
2017-06-27T16:46:02.510Z,31.90
2017-06-27T16:48:31.386Z,31.30
2017-06-27T16:51:00.211Z,32.20
2017-06-27T16:53:28.521Z,32.70
2017-06-27T16:55:56.803Z,32.30
2017-06-27T16:58:25.390Z,32.90
2017-06-27T17:00:55.618Z,32.30
2017-06-27T17:03:23.892Z,32.20
2017-06-27T17:05:52.515Z,32.90
2017-06-27T17:08:21.009Z,33.40
2017-06-27T17:10:49.293Z,32.50
2017-06-27T17:13:19.305Z,32.60
2017-06-27T17:15:48.213Z,33.70
2017-06-27T17:18:17.349Z,33.30
2017-06-27T17:20:45.934Z,33.60
2017-06-27T17:23:15.110Z,34.40
2017-06-27T17:25:44.961Z,34.80
2017-06-27T17:28:14.203Z,34.30
2017-06-27T17:30:42.980Z,34.60
2017-06-27T17:33:11.315Z,34.70
2017-06-27T17:35:39.980Z,35.30
2017-06-27T17:38:08.297Z,35.10
2017-06-27T17:40:37.370Z,35.80
2017-06-27T17:43:06.039Z,35.70
2017-06-27T17:45:34.441Z,35.70
2017-06-27T17:48:03.623Z,36.20
2017-06-27T17:50:32.333Z,36.10
2017-06-27T17:53:00.599Z,36.80
2017-06-27T17:55:28.899Z,37.00
2017-06-27T17:57:57.469Z,37.40
2017-06-27T18:00:26.443Z,36.90
2017-06-27T18:02:54.761Z,37.30
2017-06-27T18:05:24.047Z,37.90
2017-06-27T18:07:53.130Z,37.80
2017-06-27T18:10:21.863Z,38.60
2017-06-27T18:12:50.546Z,38.10
2017-06-27T18:15:19.120Z,38.50
2017-06-27T18:17:47.436Z,38.80
2017-06-27T18:20:15.995Z,39.00
2017-06-27T18:22:44.311Z,39.40
2017-06-27T18:25:13.466Z,40.10
2017-06-27T18:27:42.286Z,40.00
2017-06-27T18:30:10.567Z,39.80
2017-06-27T18:32:38.853Z,39.80
2017-06-27T18:35:07.956Z,40.30
2017-06-27T18:37:36.874Z,40.40
2017-06-27T18:40:06.562Z,41.00
2017-06-27T18:42:35.251Z,41.00
2017-06-27T18:45:03.623Z,41.20
2017-06-27T18:47:31.957Z,41.30
2017-06-27T18:50:00.706Z,41.50
2017-06-27T18:52:29.531Z,41.80
2017-06-27T18:54:59.568Z,41.70
2017-06-27T18:57:28.244Z,42.20
2017-06-27T18:59:57.997Z,43.70
2017-06-27T19:02:26.295Z,43.70
2017-06-27T19:04:54.897Z,44.20
2017-06-27T19:07:23.699Z,44.80
2017-06-27T19:09:52.844Z,45.70
2017-06-27T19:12:21.482Z,46.20
2017-06-27T19:14:49.779Z,46.70
2017-06-27T19:17:19.635Z,47.70
2017-06-27T19:19:48.242Z,47.60
2017-06-27T19:22:17.748Z,47.90
2017-06-27T19:24:46.605Z,48.30
2017-06-27T19:27:15.953Z,49.50
2017-06-27T19:29:44.246Z,49.50
2017-06-27T19:32:13.325Z,49.90
2017-06-27T19:34:42.969Z,50.50
2017-06-27T19:37:12.978Z,50.80
2017-06-27T19:39:41.476Z,51.40
2017-06-27T19:42:10.167Z,51.70
2017-06-27T19:44:39.202Z,52.10
2017-06-27T19:47:07.527Z,52.10
2017-06-27T19:49:36.210Z,52.30
2017-06-27T19:52:05.275Z,52.50
2017-06-27T19:54:34.738Z,53.20
2017-06-27T19:57:03.333Z,53.10
2017-06-27T19:59:31.603Z,53.40
2017-06-27T20:01:59.923Z,53.70
2017-06-27T20:04:29.619Z,54.30
2017-06-27T20:06:57.957Z,54.30
2017-06-27T20:09:26.519Z,54.60
2017-06-27T20:11:56.929Z,54.80
2017-06-27T20:14:26.217Z,55.20
2017-06-27T20:16:55.404Z,55.10
2017-06-27T20:19:24.106Z,55.20
2017-06-27T20:21:52.506Z,55.40
2017-06-27T20:24:20.755Z,55.70
2017-06-27T20:26:49.359Z,55.90
2017-06-27T20:29:19.372Z,55.90
2017-06-27T20:31:48.301Z,56.30
2017-06-27T20:34:17.674Z,57.00
2017-06-27T20:36:46.000Z,56.70
2017-06-27T20:39:15.083Z,57.80
2017-06-27T20:41:44.337Z,57.20
2017-06-27T20:44:12.643Z,57.50
2017-06-27T20:46:41.631Z,57.60
2017-06-27T20:49:11.053Z,57.70
2017-06-27T20:51:39.348Z,57.90
2017-06-27T20:54:08.795Z,58.20
2017-06-27T20:56:38.187Z,58.50
2017-06-27T20:59:07.349Z,58.80
2017-06-27T21:01:35.656Z,58.80
2017-06-27T21:04:05.043Z,59.00
2017-06-27T21:06:33.728Z,59.00
2017-06-27T21:09:02.116Z,59.10
2017-06-27T21:11:32.029Z,59.40
2017-06-27T21:14:00.856Z,59.40
2017-06-27T21:16:29.897Z,59.70
2017-06-27T21:18:59.424Z,59.60
2017-06-27T21:21:27.803Z,59.80
2017-06-27T21:23:56.182Z,59.90
2017-06-27T21:26:24.813Z,60.00
2017-06-27T21:28:53.180Z,60.10
2017-06-27T21:31:22.349Z,60.00
2017-06-27T21:33:50.955Z,60.00
2017-06-27T21:36:21.340Z,60.30
2017-06-27T21:38:49.643Z,60.30
2017-06-27T21:41:18.512Z,60.60
2017-06-27T21:43:47.561Z,60.90
2017-06-27T21:46:16.964Z,60.90
2017-06-27T21:48:45.578Z,61.00
2017-06-27T21:51:14.653Z,61.30
2017-06-27T21:53:42.962Z,61.60
2017-06-27T21:56:11.658Z,61.50
2017-06-27T21:58:39.948Z,61.70
2017-06-27T22:01:09.006Z,62.00
2017-06-27T22:03:37.614Z,62.10
2017-06-27T22:06:05.897Z,62.50
2017-06-27T22:08:34.739Z,62.60
2017-06-27T22:11:03.370Z,62.70
2017-06-27T22:13:32.336Z,62.80
2017-06-27T22:16:00.631Z,62.80
2017-06-27T22:18:30.451Z,62.40
2017-06-27T22:20:58.759Z,63.10
2017-06-27T22:23:28.000Z,62.80
2017-06-27T22:25:57.335Z,63.50
2017-06-27T22:28:25.629Z,62.40
2017-06-27T22:30:53.906Z,62.60
2017-06-27T22:33:23.318Z,62.70
2017-06-27T22:35:52.162Z,62.60
2017-06-27T22:38:21.287Z,62.50
2017-06-27T22:40:49.847Z,62.50
2017-06-27T22:43:19.058Z,62.80
2017-06-27T22:45:48.396Z,62.90
2017-06-27T22:48:17.029Z,62.70
2017-06-27T22:50:45.397Z,62.70
2017-06-27T22:53:13.782Z,62.80
2017-06-27T22:55:42.469Z,62.90
2017-06-27T22:58:11.390Z,63.00
2017-06-27T23:00:40.560Z,63.50
2017-06-27T23:03:09.222Z,63.30
2017-06-27T23:05:38.965Z,63.60
2017-06-27T23:08:07.257Z,64.00
2017-06-27T23:10:35.910Z,64.50
2017-06-27T23:13:04.213Z,64.70
2017-06-27T23:15:32.513Z,64.80
2017-06-27T23:18:01.939Z,65.20
2017-06-27T23:20:31.012Z,65.90
2017-06-27T23:23:00.155Z,65.80
2017-06-27T23:25:28.802Z,66.00
2017-06-27T23:27:58.012Z,66.40
2017-06-27T23:30:26.302Z,66.40
2017-06-27T23:32:55.900Z,66.80
2017-06-27T23:35:25.268Z,66.40
2017-06-27T23:37:55.917Z,66.60
2017-06-27T23:40:24.628Z,67.00
2017-06-27T23:42:53.009Z,66.90
2017-06-27T23:45:21.275Z,67.10
2017-06-27T23:47:50.476Z,66.50
2017-06-27T23:50:18.740Z,67.20
2017-06-27T23:52:47.477Z,67.30
2017-06-27T23:55:16.151Z,67.30
2017-06-27T23:57:44.427Z,67.60
